sensor_id;sensor_type;location;lat;lon;timestamp;P1;durP1;ratioP1;P2;durP2;ratioP2
68457;SDS011;65384;52.016;5.428;2022-12-08T00:01:07;6.38;;;3.35;;
68457;SDS011;65384;52.016;5.428;2022-12-08T00:03:33;7.22;;;3.53;;
68457;SDS011;65384;52.016;5.428;2022-12-08T00:06:00;8.57;;;3.88;;
68457;SDS011;65384;52.016;5.428;2022-12-08T00:08:44;6.20;;;3.40;;
68457;SDS011;65384;52.016;5.428;2022-12-08T00:11:28;6.05;;;3.10;;
68457;SDS011;65384;52.016;5.428;2022-12-08T00:13:53;5.82;;;3.00;;
68457;SDS011;65384;52.016;5.428;2022-12-08T00:16:19;5.70;;;3.28;;
68457;SDS011;65384;52.016;5.428;2022-12-08T00:18:44;10.85;;;3.58;;
68457;SDS011;65384;52.016;5.428;2022-12-08T00:21:10;6.20;;;3.00;;
68457;SDS011;65384;52.016;5.428;2022-12-08T00:23:35;5.15;;;3.10;;
68457;SDS011;65384;52.016;5.428;2022-12-08T00:26:01;7.43;;;3.30;;
68457;SDS011;65384;52.016;5.428;2022-12-08T00:28:27;8.10;;;3.40;;
68457;SDS011;65384;52.016;5.428;2022-12-08T00:30:52;5.32;;;3.15;;
68457;SDS011;65384;52.016;5.428;2022-12-08T00:33:18;7.45;;;3.20;;
68457;SDS011;65384;52.016;5.428;2022-12-08T00:35:43;7.72;;;3.35;;
68457;SDS011;65384;52.016;5.428;2022-12-08T00:38:09;6.50;;;3.20;;
68457;SDS011;65384;52.016;5.428;2022-12-08T00:40:34;7.45;;;3.35;;
68457;SDS011;65384;52.016;5.428;2022-12-08T00:42:59;4.97;;;3.15;;
68457;SDS011;65384;52.016;5.428;2022-12-08T00:45:25;6.35;;;3.55;;
68457;SDS011;65384;52.016;5.428;2022-12-08T00:47:50;4.82;;;2.80;;
68457;SDS011;65384;52.016;5.428;2022-12-08T00:50:15;6.47;;;3.58;;
68457;SDS011;65384;52.016;5.428;2022-12-08T00:52:41;8.05;;;3.90;;
68457;SDS011;65384;52.016;5.428;2022-12-08T00:55:06;7.15;;;3.55;;
68457;SDS011;65384;52.016;5.428;2022-12-08T00:57:32;10.25;;;4.20;;
68457;SDS011;65384;52.016;5.428;2022-12-08T00:59:57;7.07;;;3.85;;
68457;SDS011;65384;52.016;5.428;2022-12-08T01:02:23;9.27;;;4.55;;
68457;SDS011;65384;52.016;5.428;2022-12-08T01:04:48;7.55;;;4.07;;
68457;SDS011;65384;52.016;5.428;2022-12-08T01:07:14;9.25;;;4.07;;
68457;SDS011;65384;52.016;5.428;2022-12-08T01:09:39;7.00;;;4.05;;
68457;SDS011;65384;52.016;5.428;2022-12-08T01:12:05;9.98;;;4.07;;
68457;SDS011;65384;52.016;5.428;2022-12-08T01:14:30;9.55;;;4.25;;
68457;SDS011;65384;52.016;5.428;2022-12-08T01:16:55;8.18;;;4.25;;
68457;SDS011;65384;52.016;5.428;2022-12-08T01:19:21;7.85;;;4.28;;
68457;SDS011;65384;52.016;5.428;2022-12-08T01:21:46;8.32;;;4.13;;
68457;SDS011;65384;52.016;5.428;2022-12-08T01:24:12;8.98;;;4.68;;
68457;SDS011;65384;52.016;5.428;2022-12-08T01:26:39;13.80;;;4.95;;
68457;SDS011;65384;52.016;5.428;2022-12-08T01:29:05;8.65;;;4.50;;
68457;SDS011;65384;52.016;5.428;2022-12-08T01:31:30;11.18;;;4.57;;
68457;SDS011;65384;52.016;5.428;2022-12-08T01:33:56;8.85;;;4.60;;
68457;SDS011;65384;52.016;5.428;2022-12-08T01:36:23;7.53;;;4.30;;
68457;SDS011;65384;52.016;5.428;2022-12-08T01:38:51;9.55;;;4.63;;
68457;SDS011;65384;52.016;5.428;2022-12-08T01:41:18;10.20;;;4.80;;
68457;SDS011;65384;52.016;5.428;2022-12-08T01:44:01;10.10;;;4.75;;
68457;SDS011;65384;52.016;5.428;2022-12-08T01:46:27;9.02;;;4.30;;
68457;SDS011;65384;52.016;5.428;2022-12-08T01:49:05;8.65;;;4.28;;
68457;SDS011;65384;52.016;5.428;2022-12-08T01:51:39;9.32;;;4.05;;
68457;SDS011;65384;52.016;5.428;2022-12-08T01:54:08;9.40;;;4.43;;
68457;SDS011;65384;52.016;5.428;2022-12-08T01:56:41;8.52;;;4.53;;
68457;SDS011;65384;52.016;5.428;2022-12-08T01:59:10;8.18;;;4.78;;
68457;SDS011;65384;52.016;5.428;2022-12-08T02:01:36;7.93;;;4.45;;
68457;SDS011;65384;52.016;5.428;2022-12-08T02:04:02;11.63;;;4.35;;
68457;SDS011;65384;52.016;5.428;2022-12-08T02:06:29;10.25;;;4.75;;
68457;SDS011;65384;52.016;5.428;2022-12-08T02:08:58;7.22;;;4.60;;
68457;SDS011;65384;52.016;5.428;2022-12-08T02:11:24;9.40;;;5.18;;
68457;SDS011;65384;52.016;5.428;2022-12-08T02:13:50;10.75;;;5.80;;
68457;SDS011;65384;52.016;5.428;2022-12-08T02:16:38;10.38;;;5.75;;
68457;SDS011;65384;52.016;5.428;2022-12-08T02:22:23;10.98;;;5.70;;
68457;SDS011;65384;52.016;5.428;2022-12-08T02:27:45;12.32;;;5.70;;
68457;SDS011;65384;52.016;5.428;2022-12-08T02:30:23;10.98;;;5.07;;
68457;SDS011;65384;52.016;5.428;2022-12-08T02:38:20;10.90;;;5.03;;
68457;SDS011;65384;52.016;5.428;2022-12-08T02:43:26;8.23;;;4.03;;
68457;SDS011;65384;52.016;5.428;2022-12-08T02:46:18;13.77;;;4.15;;
68457;SDS011;65384;52.016;5.428;2022-12-08T02:51:11;9.68;;;3.28;;
68457;SDS011;65384;52.016;5.428;2022-12-08T02:53:37;8.07;;;2.85;;
68457;SDS011;65384;52.016;5.428;2022-12-08T03:04:08;5.65;;;2.28;;
68457;SDS011;65384;52.016;5.428;2022-12-08T03:06:44;4.47;;;2.17;;
68457;SDS011;65384;52.016;5.428;2022-12-08T03:12:00;2.78;;;1.40;;
68457;SDS011;65384;52.016;5.428;2022-12-08T03:14:34;4.07;;;1.40;;
68457;SDS011;65384;52.016;5.428;2022-12-08T03:16:59;1.63;;;0.90;;
68457;SDS011;65384;52.016;5.428;2022-12-08T03:19:26;3.40;;;1.20;;
68457;SDS011;65384;52.016;5.428;2022-12-08T03:21:56;3.47;;;0.98;;
68457;SDS011;65384;52.016;5.428;2022-12-08T03:24:26;2.60;;;0.98;;
68457;SDS011;65384;52.016;5.428;2022-12-08T03:26:54;1.85;;;1.00;;
68457;SDS011;65384;52.016;5.428;2022-12-08T03:29:21;1.52;;;0.80;;
68457;SDS011;65384;52.016;5.428;2022-12-08T03:31:53;1.70;;;0.98;;
68457;SDS011;65384;52.016;5.428;2022-12-08T03:34:24;3.22;;;1.00;;
68457;SDS011;65384;52.016;5.428;2022-12-08T03:36:51;3.78;;;0.80;;
68457;SDS011;65384;52.016;5.428;2022-12-08T03:39:17;3.60;;;0.98;;
68457;SDS011;65384;52.016;5.428;2022-12-08T03:41:42;2.17;;;1.00;;
68457;SDS011;65384;52.016;5.428;2022-12-08T03:44:07;2.85;;;1.10;;
68457;SDS011;65384;52.016;5.428;2022-12-08T03:46:33;2.38;;;1.10;;
68457;SDS011;65384;52.016;5.428;2022-12-08T03:48:58;3.30;;;0.95;;
68457;SDS011;65384;52.016;5.428;2022-12-08T03:51:23;4.60;;;1.30;;
68457;SDS011;65384;52.016;5.428;2022-12-08T03:53:51;3.60;;;1.20;;
68457;SDS011;65384;52.016;5.428;2022-12-08T03:58:55;3.33;;;1.25;;
68457;SDS011;65384;52.016;5.428;2022-12-08T04:01:20;3.10;;;1.30;;
68457;SDS011;65384;52.016;5.428;2022-12-08T04:03:46;2.30;;;1.40;;
68457;SDS011;65384;52.016;5.428;2022-12-08T04:06:12;4.43;;;1.60;;
68457;SDS011;65384;52.016;5.428;2022-12-08T04:08:37;3.50;;;1.75;;
68457;SDS011;65384;52.016;5.428;2022-12-08T04:11:03;3.78;;;2.00;;
68457;SDS011;65384;52.016;5.428;2022-12-08T04:13:30;5.35;;;2.03;;
68457;SDS011;65384;52.016;5.428;2022-12-08T04:15:55;4.20;;;1.90;;
68457;SDS011;65384;52.016;5.428;2022-12-08T04:18:20;4.28;;;2.08;;
68457;SDS011;65384;52.016;5.428;2022-12-08T04:20:46;4.80;;;2.05;;
68457;SDS011;65384;52.016;5.428;2022-12-08T04:23:12;5.32;;;2.55;;
68457;SDS011;65384;52.016;5.428;2022-12-08T04:25:37;5.15;;;2.25;;
68457;SDS011;65384;52.016;5.428;2022-12-08T04:28:03;4.97;;;2.40;;
68457;SDS011;65384;52.016;5.428;2022-12-08T04:30:28;4.53;;;2.50;;
68457;SDS011;65384;52.016;5.428;2022-12-08T04:32:54;5.53;;;2.75;;
68457;SDS011;65384;52.016;5.428;2022-12-08T04:35:19;4.00;;;2.10;;
68457;SDS011;65384;52.016;5.428;2022-12-08T04:37:45;4.63;;;2.40;;
68457;SDS011;65384;52.016;5.428;2022-12-08T04:40:10;5.72;;;2.58;;
68457;SDS011;65384;52.016;5.428;2022-12-08T04:42:36;6.35;;;2.50;;
68457;SDS011;65384;52.016;5.428;2022-12-08T04:45:02;3.75;;;2.33;;
68457;SDS011;65384;52.016;5.428;2022-12-08T04:47:28;3.63;;;1.80;;
68457;SDS011;65384;52.016;5.428;2022-12-08T04:49:53;4.47;;;1.90;;
68457;SDS011;65384;52.016;5.428;2022-12-08T04:52:18;2.40;;;1.60;;
68457;SDS011;65384;52.016;5.428;2022-12-08T04:54:44;5.00;;;1.83;;
68457;SDS011;65384;52.016;5.428;2022-12-08T04:57:09;4.13;;;1.50;;
68457;SDS011;65384;52.016;5.428;2022-12-08T04:59:34;4.53;;;1.65;;
68457;SDS011;65384;52.016;5.428;2022-12-08T05:02:00;1.00;;;0.80;;
68457;SDS011;65384;52.016;5.428;2022-12-08T05:04:25;1.05;;;0.70;;
68457;SDS011;65384;52.016;5.428;2022-12-08T05:06:51;3.00;;;1.00;;
68457;SDS011;65384;52.016;5.428;2022-12-08T05:09:16;1.40;;;0.60;;
68457;SDS011;65384;52.016;5.428;2022-12-08T05:11:41;2.03;;;0.60;;
68457;SDS011;65384;52.016;5.428;2022-12-08T05:14:10;3.30;;;0.70;;
68457;SDS011;65384;52.016;5.428;2022-12-08T05:16:36;1.38;;;0.80;;
68457;SDS011;65384;52.016;5.428;2022-12-08T05:19:01;1.77;;;0.45;;
68457;SDS011;65384;52.016;5.428;2022-12-08T05:21:27;0.68;;;0.47;;
68457;SDS011;65384;52.016;5.428;2022-12-08T05:23:53;0.40;;;0.40;;
68457;SDS011;65384;52.016;5.428;2022-12-08T05:26:18;1.60;;;0.45;;
68457;SDS011;65384;52.016;5.428;2022-12-08T05:28:43;1.90;;;0.50;;
68457;SDS011;65384;52.016;5.428;2022-12-08T05:31:09;0.32;;;0.30;;
68457;SDS011;65384;52.016;5.428;2022-12-08T05:33:36;0.40;;;0.40;;
68457;SDS011;65384;52.016;5.428;2022-12-08T05:36:02;2.47;;;0.30;;
68457;SDS011;65384;52.016;5.428;2022-12-08T05:38:28;1.83;;;0.50;;
68457;SDS011;65384;52.016;5.428;2022-12-08T05:40:53;3.30;;;0.47;;
68457;SDS011;65384;52.016;5.428;2022-12-08T05:43:19;2.28;;;0.43;;
68457;SDS011;65384;52.016;5.428;2022-12-08T05:45:44;1.75;;;0.50;;
68457;SDS011;65384;52.016;5.428;2022-12-08T05:48:10;3.50;;;0.40;;
68457;SDS011;65384;52.016;5.428;2022-12-08T05:50:35;2.45;;;0.40;;
68457;SDS011;65384;52.016;5.428;2022-12-08T05:53:03;4.78;;;0.30;;
68457;SDS011;65384;52.016;5.428;2022-12-08T05:55:34;1.80;;;0.30;;
68457;SDS011;65384;52.016;5.428;2022-12-08T05:58:03;0.68;;;0.20;;
68457;SDS011;65384;52.016;5.428;2022-12-08T06:00:28;0.20;;;0.20;;
68457;SDS011;65384;52.016;5.428;2022-12-08T06:02:56;1.15;;;0.60;;
68457;SDS011;65384;52.016;5.428;2022-12-08T06:05:21;1.52;;;0.60;;
68457;SDS011;65384;52.016;5.428;2022-12-08T06:07:47;2.67;;;0.60;;
68457;SDS011;65384;52.016;5.428;2022-12-08T06:10:15;1.88;;;0.43;;
68457;SDS011;65384;52.016;5.428;2022-12-08T06:12:40;3.83;;;0.75;;
68457;SDS011;65384;52.016;5.428;2022-12-08T06:15:06;1.23;;;0.68;;
68457;SDS011;65384;52.016;5.428;2022-12-08T06:17:35;0.70;;;0.47;;
68457;SDS011;65384;52.016;5.428;2022-12-08T06:20:00;3.38;;;0.68;;
68457;SDS011;65384;52.016;5.428;2022-12-08T06:22:26;0.90;;;0.60;;
68457;SDS011;65384;52.016;5.428;2022-12-08T06:24:55;3.78;;;0.90;;
68457;SDS011;65384;52.016;5.428;2022-12-08T06:27:21;1.30;;;0.77;;
68457;SDS011;65384;52.016;5.428;2022-12-08T06:29:49;1.35;;;0.60;;
68457;SDS011;65384;52.016;5.428;2022-12-08T06:32:19;1.88;;;1.00;;
68457;SDS011;65384;52.016;5.428;2022-12-08T06:34:47;0.98;;;0.85;;
68457;SDS011;65384;52.016;5.428;2022-12-08T06:37:12;4.88;;;1.00;;
68457;SDS011;65384;52.016;5.428;2022-12-08T06:39:48;2.65;;;1.10;;
68457;SDS011;65384;52.016;5.428;2022-12-08T06:42:13;4.03;;;1.25;;
68457;SDS011;65384;52.016;5.428;2022-12-08T06:44:57;3.40;;;1.35;;
68457;SDS011;65384;52.016;5.428;2022-12-08T06:47:23;5.35;;;1.10;;
68457;SDS011;65384;52.016;5.428;2022-12-08T06:49:48;2.58;;;1.38;;
68457;SDS011;65384;52.016;5.428;2022-12-08T06:52:13;1.98;;;1.20;;
68457;SDS011;65384;52.016;5.428;2022-12-08T06:54:39;4.00;;;1.30;;
68457;SDS011;65384;52.016;5.428;2022-12-08T06:57:04;2.88;;;1.08;;
68457;SDS011;65384;52.016;5.428;2022-12-08T06:59:30;2.80;;;1.10;;
68457;SDS011;65384;52.016;5.428;2022-12-08T07:01:55;2.47;;;1.20;;
68457;SDS011;65384;52.016;5.428;2022-12-08T07:04:21;1.73;;;0.93;;
68457;SDS011;65384;52.016;5.428;2022-12-08T07:06:46;2.15;;;1.10;;
68457;SDS011;65384;52.016;5.428;2022-12-08T07:09:12;2.72;;;0.98;;
68457;SDS011;65384;52.016;5.428;2022-12-08T07:11:37;2.05;;;1.00;;
68457;SDS011;65384;52.016;5.428;2022-12-08T07:14:03;1.50;;;0.90;;
68457;SDS011;65384;52.016;5.428;2022-12-08T07:16:28;1.60;;;0.80;;
68457;SDS011;65384;52.016;5.428;2022-12-08T07:18:54;2.05;;;1.10;;
68457;SDS011;65384;52.016;5.428;2022-12-08T07:21:19;2.67;;;1.17;;
68457;SDS011;65384;52.016;5.428;2022-12-08T07:23:45;1.83;;;1.10;;
68457;SDS011;65384;52.016;5.428;2022-12-08T07:26:11;2.80;;;1.40;;
68457;SDS011;65384;52.016;5.428;2022-12-08T07:28:38;2.47;;;1.17;;
68457;SDS011;65384;52.016;5.428;2022-12-08T07:31:04;3.05;;;1.50;;
68457;SDS011;65384;52.016;5.428;2022-12-08T07:33:30;3.53;;;1.15;;
68457;SDS011;65384;52.016;5.428;2022-12-08T07:35:57;2.92;;;1.40;;
68457;SDS011;65384;52.016;5.428;2022-12-08T07:38:24;7.82;;;1.38;;
68457;SDS011;65384;52.016;5.428;2022-12-08T07:40:49;4.03;;;1.42;;
68457;SDS011;65384;52.016;5.428;2022-12-08T07:43:15;2.90;;;1.25;;
68457;SDS011;65384;52.016;5.428;2022-12-08T07:45:41;2.92;;;1.30;;
68457;SDS011;65384;52.016;5.428;2022-12-08T07:48:06;4.07;;;1.65;;
68457;SDS011;65384;52.016;5.428;2022-12-08T07:50:31;2.75;;;1.30;;
68457;SDS011;65384;52.016;5.428;2022-12-08T07:52:57;4.05;;;1.20;;
68457;SDS011;65384;52.016;5.428;2022-12-08T07:55:22;4.10;;;1.38;;
68457;SDS011;65384;52.016;5.428;2022-12-08T07:57:48;2.30;;;1.20;;
68457;SDS011;65384;52.016;5.428;2022-12-08T08:00:14;1.75;;;0.88;;
68457;SDS011;65384;52.016;5.428;2022-12-08T08:02:40;4.05;;;1.30;;
68457;SDS011;65384;52.016;5.428;2022-12-08T08:05:05;5.57;;;1.35;;
68457;SDS011;65384;52.016;5.428;2022-12-08T08:07:31;3.22;;;1.42;;
68457;SDS011;65384;52.016;5.428;2022-12-08T08:09:56;5.88;;;1.60;;
68457;SDS011;65384;52.016;5.428;2022-12-08T08:12:22;4.40;;;1.42;;
68457;SDS011;65384;52.016;5.428;2022-12-08T08:14:47;2.88;;;1.20;;
68457;SDS011;65384;52.016;5.428;2022-12-08T08:17:12;3.58;;;1.20;;
68457;SDS011;65384;52.016;5.428;2022-12-08T08:19:38;3.65;;;1.35;;
68457;SDS011;65384;52.016;5.428;2022-12-08T08:22:03;3.60;;;1.38;;
68457;SDS011;65384;52.016;5.428;2022-12-08T08:24:28;4.00;;;1.50;;
68457;SDS011;65384;52.016;5.428;2022-12-08T08:26:54;5.60;;;1.30;;
68457;SDS011;65384;52.016;5.428;2022-12-08T08:29:19;2.58;;;1.13;;
68457;SDS011;65384;52.016;5.428;2022-12-08T08:31:45;4.00;;;1.20;;
68457;SDS011;65384;52.016;5.428;2022-12-08T08:34:10;3.30;;;1.30;;
68457;SDS011;65384;52.016;5.428;2022-12-08T08:36:36;2.45;;;1.30;;
68457;SDS011;65384;52.016;5.428;2022-12-08T08:39:02;2.92;;;1.10;;
68457;SDS011;65384;52.016;5.428;2022-12-08T08:41:27;2.75;;;0.93;;
68457;SDS011;65384;52.016;5.428;2022-12-08T08:43:53;1.50;;;0.80;;
68457;SDS011;65384;52.016;5.428;2022-12-08T08:46:18;1.77;;;0.85;;
68457;SDS011;65384;52.016;5.428;2022-12-08T08:48:44;3.25;;;1.23;;
68457;SDS011;65384;52.016;5.428;2022-12-08T08:51:10;2.88;;;1.40;;
68457;SDS011;65384;52.016;5.428;2022-12-08T08:53:37;2.75;;;1.40;;
68457;SDS011;65384;52.016;5.428;2022-12-08T08:56:07;2.53;;;1.40;;
68457;SDS011;65384;52.016;5.428;2022-12-08T08:58:33;3.20;;;1.30;;
68457;SDS011;65384;52.016;5.428;2022-12-08T09:00:59;2.58;;;1.20;;
68457;SDS011;65384;52.016;5.428;2022-12-08T09:03:24;2.38;;;1.10;;
68457;SDS011;65384;52.016;5.428;2022-12-08T09:05:49;2.60;;;1.27;;
68457;SDS011;65384;52.016;5.428;2022-12-08T09:08:15;2.72;;;1.50;;
68457;SDS011;65384;52.016;5.428;2022-12-08T09:10:40;2.72;;;1.33;;
68457;SDS011;65384;52.016;5.428;2022-12-08T09:13:06;3.35;;;1.70;;
68457;SDS011;65384;52.016;5.428;2022-12-08T09:15:31;3.50;;;1.60;;
68457;SDS011;65384;52.016;5.428;2022-12-08T09:17:56;2.90;;;1.60;;
68457;SDS011;65384;52.016;5.428;2022-12-08T09:20:22;4.70;;;1.70;;
68457;SDS011;65384;52.016;5.428;2022-12-08T09:22:47;4.20;;;1.85;;
68457;SDS011;65384;52.016;5.428;2022-12-08T09:25:12;2.95;;;1.02;;
68457;SDS011;65384;52.016;5.428;2022-12-08T09:27:38;1.77;;;0.98;;
68457;SDS011;65384;52.016;5.428;2022-12-08T09:30:03;1.55;;;1.00;;
68457;SDS011;65384;52.016;5.428;2022-12-08T09:32:29;1.55;;;0.90;;
68457;SDS011;65384;52.016;5.428;2022-12-08T09:34:54;1.40;;;0.80;;
68457;SDS011;65384;52.016;5.428;2022-12-08T09:37:19;1.58;;;0.93;;
68457;SDS011;65384;52.016;5.428;2022-12-08T09:39:45;2.00;;;1.00;;
68457;SDS011;65384;52.016;5.428;2022-12-08T09:42:10;1.98;;;1.10;;
68457;SDS011;65384;52.016;5.428;2022-12-08T09:44:54;2.83;;;1.10;;
68457;SDS011;65384;52.016;5.428;2022-12-08T09:47:31;4.13;;;1.60;;
68457;SDS011;65384;52.016;5.428;2022-12-08T09:52:37;4.10;;;1.70;;
68457;SDS011;65384;52.016;5.428;2022-12-08T09:55:24;3.78;;;1.80;;
68457;SDS011;65384;52.016;5.428;2022-12-08T09:58:02;4.10;;;1.98;;
68457;SDS011;65384;52.016;5.428;2022-12-08T10:00:27;5.70;;;2.10;;
68457;SDS011;65384;52.016;5.428;2022-12-08T10:02:54;4.80;;;2.28;;
68457;SDS011;65384;52.016;5.428;2022-12-08T10:05:19;4.65;;;2.10;;
68457;SDS011;65384;52.016;5.428;2022-12-08T10:07:55;4.57;;;2.10;;
68457;SDS011;65384;52.016;5.428;2022-12-08T10:13:15;5.40;;;2.10;;
68457;SDS011;65384;52.016;5.428;2022-12-08T10:15:57;4.60;;;1.90;;
68457;SDS011;65384;52.016;5.428;2022-12-08T10:18:40;3.70;;;1.90;;
68457;SDS011;65384;52.016;5.428;2022-12-08T10:21:15;3.15;;;1.77;;
68457;SDS011;65384;52.016;5.428;2022-12-08T10:23:45;2.90;;;1.38;;
68457;SDS011;65384;52.016;5.428;2022-12-08T10:26:15;1.92;;;1.20;;
68457;SDS011;65384;52.016;5.428;2022-12-08T10:28:42;1.85;;;1.08;;
68457;SDS011;65384;52.016;5.428;2022-12-08T10:31:13;1.65;;;1.00;;
68457;SDS011;65384;52.016;5.428;2022-12-08T10:33:42;3.25;;;1.38;;
68457;SDS011;65384;52.016;5.428;2022-12-08T10:36:08;4.72;;;1.20;;
68457;SDS011;65384;52.016;5.428;2022-12-08T10:38:35;1.95;;;0.95;;
68457;SDS011;65384;52.016;5.428;2022-12-08T10:46:25;1.77;;;1.00;;
68457;SDS011;65384;52.016;5.428;2022-12-08T10:48:52;1.75;;;0.82;;
68457;SDS011;65384;52.016;5.428;2022-12-08T10:51:26;0.80;;;0.60;;
68457;SDS011;65384;52.016;5.428;2022-12-08T10:53:53;1.30;;;0.80;;
68457;SDS011;65384;52.016;5.428;2022-12-08T10:56:18;1.38;;;0.90;;
68457;SDS011;65384;52.016;5.428;2022-12-08T10:58:50;1.55;;;0.80;;
68457;SDS011;65384;52.016;5.428;2022-12-08T11:01:54;1.95;;;0.82;;
68457;SDS011;65384;52.016;5.428;2022-12-08T11:04:38;5.78;;;0.85;;
68457;SDS011;65384;52.016;5.428;2022-12-08T11:07:04;4.00;;;1.05;;
68457;SDS011;65384;52.016;5.428;2022-12-08T11:09:34;1.23;;;0.70;;
68457;SDS011;65384;52.016;5.428;2022-12-08T11:12:11;2.67;;;0.70;;
68457;SDS011;65384;52.016;5.428;2022-12-08T11:17:11;0.60;;;0.50;;
68457;SDS011;65384;52.016;5.428;2022-12-08T11:19:38;1.33;;;0.60;;
68457;SDS011;65384;52.016;5.428;2022-12-08T11:22:24;0.82;;;0.55;;
68457;SDS011;65384;52.016;5.428;2022-12-08T11:25:18;0.75;;;0.40;;
68457;SDS011;65384;52.016;5.428;2022-12-08T11:27:42;2.05;;;0.43;;
68457;SDS011;65384;52.016;5.428;2022-12-08T11:30:22;1.33;;;0.52;;
68457;SDS011;65384;52.016;5.428;2022-12-08T11:32:53;1.17;;;0.82;;
68457;SDS011;65384;52.016;5.428;2022-12-08T11:38:27;4.80;;;0.80;;
68457;SDS011;65384;52.016;5.428;2022-12-08T11:40:46;1.58;;;0.60;;
68457;SDS011;65384;52.016;5.428;2022-12-08T11:43:35;0.73;;;0.60;;
68457;SDS011;65384;52.016;5.428;2022-12-08T11:46:12;1.05;;;0.65;;
68457;SDS011;65384;52.016;5.428;2022-12-08T11:49:14;0.90;;;0.50;;
68457;SDS011;65384;52.016;5.428;2022-12-08T11:51:38;0.80;;;0.60;;
68457;SDS011;65384;52.016;5.428;2022-12-08T11:56:59;2.15;;;0.63;;
68457;SDS011;65384;52.016;5.428;2022-12-08T11:59:39;1.77;;;0.50;;
68457;SDS011;65384;52.016;5.428;2022-12-08T12:02:11;0.88;;;0.50;;
68457;SDS011;65384;52.016;5.428;2022-12-08T12:04:41;2.57;;;0.60;;
68457;SDS011;65384;52.016;5.428;2022-12-08T12:18:36;0.70;;;0.60;;
68457;SDS011;65384;52.016;5.428;2022-12-08T12:20:49;0.60;;;0.60;;
68457;SDS011;65384;52.016;5.428;2022-12-08T12:23:20;0.95;;;0.60;;
68457;SDS011;65384;52.016;5.428;2022-12-08T12:26:15;1.17;;;0.80;;
68457;SDS011;65384;52.016;5.428;2022-12-08T12:28:46;1.25;;;0.90;;
68457;SDS011;65384;52.016;5.428;2022-12-08T12:31:15;3.72;;;1.15;;
68457;SDS011;65384;52.016;5.428;2022-12-08T12:33:42;2.33;;;0.95;;
68457;SDS011;65384;52.016;5.428;2022-12-08T12:36:08;3.20;;;1.10;;
68457;SDS011;65384;52.016;5.428;2022-12-08T12:38:38;1.35;;;0.70;;
68457;SDS011;65384;52.016;5.428;2022-12-08T12:46:39;1.90;;;0.80;;
68457;SDS011;65384;52.016;5.428;2022-12-08T12:52:04;1.23;;;0.80;;
68457;SDS011;65384;52.016;5.428;2022-12-08T12:54:31;1.15;;;0.77;;
68457;SDS011;65384;52.016;5.428;2022-12-08T13:01:59;3.15;;;1.75;;
68457;SDS011;65384;52.016;5.428;2022-12-08T13:04:30;3.17;;;1.73;;
68457;SDS011;65384;52.016;5.428;2022-12-08T13:06:58;5.65;;;1.20;;
68457;SDS011;65384;52.016;5.428;2022-12-08T13:09:34;0.93;;;0.70;;
68457;SDS011;65384;52.016;5.428;2022-12-08T13:12:08;1.33;;;0.80;;
68457;SDS011;65384;52.016;5.428;2022-12-08T13:14:36;1.45;;;0.70;;
68457;SDS011;65384;52.016;5.428;2022-12-08T13:17:10;1.77;;;0.55;;
68457;SDS011;65384;52.016;5.428;2022-12-08T13:19:37;1.60;;;0.68;;
68457;SDS011;65384;52.016;5.428;2022-12-08T13:22:27;2.20;;;0.90;;
68457;SDS011;65384;52.016;5.428;2022-12-08T13:28:17;2.20;;;0.98;;
68457;SDS011;65384;52.016;5.428;2022-12-08T13:33:15;1.95;;;1.13;;
68457;SDS011;65384;52.016;5.428;2022-12-08T13:35:44;2.47;;;1.30;;
68457;SDS011;65384;52.016;5.428;2022-12-08T13:38:18;2.50;;;1.50;;
68457;SDS011;65384;52.016;5.428;2022-12-08T13:40:45;5.45;;;1.75;;
68457;SDS011;65384;52.016;5.428;2022-12-08T13:46:12;6.32;;;2.17;;
68457;SDS011;65384;52.016;5.428;2022-12-08T13:48:43;3.47;;;2.10;;
68457;SDS011;65384;52.016;5.428;2022-12-08T13:53:42;4.35;;;2.28;;
68457;SDS011;65384;52.016;5.428;2022-12-08T13:56:09;5.10;;;3.00;;
68457;SDS011;65384;52.016;5.428;2022-12-08T13:58:35;4.95;;;2.60;;
68457;SDS011;65384;52.016;5.428;2022-12-08T14:01:18;7.18;;;2.90;;
68457;SDS011;65384;52.016;5.428;2022-12-08T14:06:36;5.60;;;2.80;;
68457;SDS011;65384;52.016;5.428;2022-12-08T14:09:02;8.32;;;3.70;;
68457;SDS011;65384;52.016;5.428;2022-12-08T14:11:34;7.93;;;3.88;;
68457;SDS011;65384;52.016;5.428;2022-12-08T14:14:05;9.88;;;4.05;;
68457;SDS011;65384;52.016;5.428;2022-12-08T14:16:37;13.43;;;5.60;;
68457;SDS011;65384;52.016;5.428;2022-12-08T14:19:04;8.82;;;3.88;;
68457;SDS011;65384;52.016;5.428;2022-12-08T14:21:30;7.93;;;3.90;;
68457;SDS011;65384;52.016;5.428;2022-12-08T14:23:59;7.05;;;3.65;;
68457;SDS011;65384;52.016;5.428;2022-12-08T14:26:25;6.45;;;3.45;;
68457;SDS011;65384;52.016;5.428;2022-12-08T14:28:56;8.65;;;4.07;;
68457;SDS011;65384;52.016;5.428;2022-12-08T14:31:22;8.13;;;4.28;;
68457;SDS011;65384;52.016;5.428;2022-12-08T14:33:47;8.43;;;3.85;;
68457;SDS011;65384;52.016;5.428;2022-12-08T14:36:12;10.30;;;4.43;;
68457;SDS011;65384;52.016;5.428;2022-12-08T14:38:39;9.43;;;4.88;;
68457;SDS011;65384;52.016;5.428;2022-12-08T14:41:06;14.68;;;6.22;;
68457;SDS011;65384;52.016;5.428;2022-12-08T14:43:32;20.92;;;8.57;;
68457;SDS011;65384;52.016;5.428;2022-12-08T14:46:02;25.00;;;9.85;;
68457;SDS011;65384;52.016;5.428;2022-12-08T14:53:26;9.45;;;4.43;;
68457;SDS011;65384;52.016;5.428;2022-12-08T14:56:08;9.55;;;4.07;;
68457;SDS011;65384;52.016;5.428;2022-12-08T14:58:39;8.68;;;4.32;;
68457;SDS011;65384;52.016;5.428;2022-12-08T15:01:05;10.93;;;4.38;;
68457;SDS011;65384;52.016;5.428;2022-12-08T15:03:30;9.88;;;4.50;;
68457;SDS011;65384;52.016;5.428;2022-12-08T15:05:57;11.60;;;5.15;;
68457;SDS011;65384;52.016;5.428;2022-12-08T15:08:24;11.70;;;5.18;;
68457;SDS011;65384;52.016;5.428;2022-12-08T15:13:44;11.73;;;4.53;;
68457;SDS011;65384;52.016;5.428;2022-12-08T15:16:22;11.20;;;4.50;;
68457;SDS011;65384;52.016;5.428;2022-12-08T15:19:00;10.70;;;4.33;;
68457;SDS011;65384;52.016;5.428;2022-12-08T15:21:29;9.85;;;4.00;;
68457;SDS011;65384;52.016;5.428;2022-12-08T15:24:00;11.32;;;4.45;;
68457;SDS011;65384;52.016;5.428;2022-12-08T15:26:26;11.57;;;4.35;;
68457;SDS011;65384;52.016;5.428;2022-12-08T15:28:52;7.70;;;3.85;;
68457;SDS011;65384;52.016;5.428;2022-12-08T15:31:18;8.38;;;3.78;;
68457;SDS011;65384;52.016;5.428;2022-12-08T15:33:44;8.60;;;4.15;;
68457;SDS011;65384;52.016;5.428;2022-12-08T15:36:09;9.50;;;4.55;;
68457;SDS011;65384;52.016;5.428;2022-12-08T15:38:35;8.98;;;4.45;;
68457;SDS011;65384;52.016;5.428;2022-12-08T15:41:01;8.43;;;3.90;;
68457;SDS011;65384;52.016;5.428;2022-12-08T15:43:26;8.88;;;4.13;;
68457;SDS011;65384;52.016;5.428;2022-12-08T15:45:52;8.20;;;4.18;;
68457;SDS011;65384;52.016;5.428;2022-12-08T15:48:19;11.65;;;5.07;;
68457;SDS011;65384;52.016;5.428;2022-12-08T15:50:46;7.32;;;3.88;;
68457;SDS011;65384;52.016;5.428;2022-12-08T15:53:12;9.50;;;4.43;;
68457;SDS011;65384;52.016;5.428;2022-12-08T15:55:37;9.15;;;4.30;;
68457;SDS011;65384;52.016;5.428;2022-12-08T15:58:03;11.65;;;5.45;;
68457;SDS011;65384;52.016;5.428;2022-12-08T16:00:30;15.15;;;5.63;;
68457;SDS011;65384;52.016;5.428;2022-12-08T16:02:58;13.20;;;6.20;;
68457;SDS011;65384;52.016;5.428;2022-12-08T16:05:24;16.23;;;6.53;;
68457;SDS011;65384;52.016;5.428;2022-12-08T16:07:50;10.43;;;5.07;;
68457;SDS011;65384;52.016;5.428;2022-12-08T16:10:17;13.23;;;5.85;;
68457;SDS011;65384;52.016;5.428;2022-12-08T16:12:48;12.07;;;5.57;;
68457;SDS011;65384;52.016;5.428;2022-12-08T16:15:36;14.07;;;6.35;;
68457;SDS011;65384;52.016;5.428;2022-12-08T16:18:03;17.17;;;6.65;;
68457;SDS011;65384;52.016;5.428;2022-12-08T16:20:31;12.98;;;6.75;;
68457;SDS011;65384;52.016;5.428;2022-12-08T16:22:57;15.60;;;7.75;;
68457;SDS011;65384;52.016;5.428;2022-12-08T16:25:22;13.85;;;6.80;;
68457;SDS011;65384;52.016;5.428;2022-12-08T16:27:49;17.02;;;7.47;;